Time;durP1;ratioP1;P1;durP2;ratioP2;P2;SDS_P1;SDS_P2;PMS_P1;PMS_P2;Temp;Humidity;BMP_temperature;BMP_pressure;BME280_temperature;BME280_humidity;BME280_pressure;Samples;Min_cycle;Max_cycle;Signal;HPM_P1;HPM_P2
2022/12/08 00:00:48;;;;;;;19.85;11.40;;;;;;;;;;5093022;28;20024;-78
2022/12/08 00:03:14;;;;;;;21.33;11.15;;;;;;;;;;5093206;28;20505;-77
2022/12/08 00:11:16;;;;;;;18.95;11.55;;;;;;;;;;5093146;28;20039;-77
2022/12/08 00:13:42;;;;;;;21.95;11.57;;;;;;;;;;5093028;28;20032;-77
2022/12/08 00:16:07;;;;;;;22.48;11.70;;;;;;;;;;5092260;28;20561;-78
2022/12/08 00:18:33;;;;;;;20.27;11.05;;;;;;;;;;5092741;28;20103;-78
2022/12/08 00:21:04;;;;;;;19.13;11.40;;;;;;;;;;5092581;28;20059;-79
2022/12/08 00:23:30;;;;;;;20.55;11.10;;;;;;;;;;5092861;28;20073;-79
2022/12/08 00:25:55;;;;;;;20.70;11.13;;;;;;;;;;5092511;28;20586;-77
2022/12/08 00:28:21;;;;;;;19.80;10.95;;;;;;;;;;5074563;28;20035;-78
2022/12/08 00:30:46;;;;;;;20.98;10.77;;;;;;;;;;5092408;28;20569;-80
2022/12/08 00:33:12;;;;;;;18.48;10.70;;;;;;;;;;5092541;28;20099;-79
2022/12/08 00:35:37;;;;;;;17.88;10.15;;;;;;;;;;5073785;28;20028;-79
2022/12/08 00:38:03;;;;;;;18.35;10.70;;;;;;;;;;5092450;28;20066;-78
2022/12/08 00:40:29;;;;;;;18.73;11.18;;;;;;;;;;5091613;28;20633;-78
2022/12/08 00:42:54;;;;;;;19.48;10.77;;;;;;;;;;5092340;28;20032;-78
2022/12/08 00:45:20;;;;;;;17.52;10.48;;;;;;;;;;5092733;28;20024;-78
2022/12/08 00:47:45;;;;;;;21.80;11.00;;;;;;;;;;5092413;28;20035;-78
2022/12/08 00:50:11;;;;;;;18.67;10.52;;;;;;;;;;5092227;28;20059;-77
2022/12/08 00:52:36;;;;;;;20.83;11.02;;;;;;;;;;5091890;28;20024;-77
2022/12/08 00:55:03;;;;;;;18.92;10.73;;;;;;;;;;5092067;28;20036;-77
2022/12/08 00:57:28;;;;;;;18.25;9.98;;;;;;;;;;5091711;28;20090;-78
2022/12/08 00:59:53;;;;;;;20.23;9.65;;;;;;;;;;5074173;28;20060;-78
2022/12/08 01:02:19;;;;;;;19.33;9.45;;;;;;;;;;5092032;28;20464;-78
2022/12/08 01:04:44;;;;;;;16.98;9.13;;;;;;;;;;5091978;28;20027;-79
2022/12/08 01:07:10;;;;;;;16.17;9.73;;;;;;;;;;5091642;28;20028;-79
2022/12/08 01:09:35;;;;;;;15.95;9.57;;;;;;;;;;5073720;28;20054;-79
2022/12/08 01:12:01;;;;;;;19.50;10.00;;;;;;;;;;5091653;28;20103;-79
2022/12/08 01:14:26;;;;;;;17.80;9.95;;;;;;;;;;5091301;28;20150;-79
2022/12/08 01:16:52;;;;;;;17.48;9.40;;;;;;;;;;5091595;28;20028;-78
2022/12/08 01:19:17;;;;;;;17.65;9.10;;;;;;;;;;5091433;28;20116;-78
2022/12/08 01:21:43;;;;;;;17.15;9.85;;;;;;;;;;5091079;28;20030;-78
2022/12/08 01:24:18;;;;;;;16.90;9.05;;;;;;;;;;5091206;28;20030;-79
2022/12/08 01:26:44;;;;;;;16.60;9.35;;;;;;;;;;5090834;28;20020;-78
2022/12/08 01:29:10;;;;;;;17.90;9.75;;;;;;;;;;5091292;28;20036;-79
2022/12/08 01:31:35;;;;;;;19.65;9.45;;;;;;;;;;5091010;28;20038;-78
2022/12/08 01:34:01;;;;;;;16.52;8.63;;;;;;;;;;5091227;28;20024;-77
2022/12/08 01:36:29;;;;;;;16.85;8.75;;;;;;;;;;5091060;28;20059;-78
2022/12/08 01:39:00;;;;;;;15.95;9.15;;;;;;;;;;5091315;28;20035;-78
2022/12/08 01:41:30;;;;;;;17.17;9.60;;;;;;;;;;5091125;28;20115;-78
2022/12/08 01:44:09;;;;;;;16.52;8.57;;;;;;;;;;5091154;28;20031;-78
2022/12/08 01:46:38;;;;;;;17.90;8.63;;;;;;;;;;5090645;28;20074;-79
2022/12/08 01:49:12;;;;;;;17.20;8.88;;;;;;;;;;5091278;28;20472;-77
2022/12/08 01:51:45;;;;;;;18.60;9.15;;;;;;;;;;5072926;28;20032;-79
2022/12/08 01:54:12;;;;;;;14.50;8.65;;;;;;;;;;5091086;28;20099;-78
2022/12/08 01:56:45;;;;;;;14.55;8.70;;;;;;;;;;5090588;28;20543;-78
2022/12/08 01:59:11;;;;;;;15.50;8.43;;;;;;;;;;5090696;28;20039;-79
2022/12/08 02:01:37;;;;;;;16.52;9.00;;;;;;;;;;5090622;28;20035;-78
2022/12/08 02:04:03;;;;;;;14.93;8.65;;;;;;;;;;5090924;28;20395;-79
2022/12/08 02:06:33;;;;;;;15.15;8.38;;;;;;;;;;5090603;28;20035;-79
2022/12/08 02:09:01;;;;;;;14.52;8.32;;;;;;;;;;5090855;28;20031;-78
2022/12/08 02:11:26;;;;;;;13.90;8.10;;;;;;;;;;5090711;28;20025;-78
2022/12/08 02:13:54;;;;;;;13.77;8.40;;;;;;;;;;5090495;28;20020;-79
2022/12/08 02:16:28;;;;;;;15.45;8.13;;;;;;;;;;5090582;28;20040;-79
2022/12/08 02:19:27;;;;;;;14.77;7.93;;;;;;;;;;5090416;28;20078;-80
2022/12/08 02:21:58;;;;;;;13.32;7.60;;;;;;;;;;5072085;28;20027;-79
2022/12/08 02:24:31;;;;;;;15.25;8.15;;;;;;;;;;5090549;28;20030;-79
2022/12/08 02:27:17;;;;;;;13.30;7.85;;;;;;;;;;5090215;28;20028;-79
2022/12/08 02:30:01;;;;;;;15.85;7.80;;;;;;;;;;5090600;28;20507;-80
2022/12/08 02:33:00;;;;;;;16.42;7.75;;;;;;;;;;5090611;28;20059;-80
2022/12/08 02:35:52;;;;;;;15.23;7.30;;;;;;;;;;5090178;28;20028;-79
2022/12/08 02:38:30;;;;;;;12.25;7.45;;;;;;;;;;5089920;28;20032;-78
2022/12/08 02:41:04;;;;;;;13.50;7.25;;;;;;;;;;5072185;28;20032;-77
2022/12/08 02:43:54;;;;;;;13.50;7.72;;;;;;;;;;5089800;28;20058;-79
2022/12/08 02:46:57;;;;;;;12.32;7.70;;;;;;;;;;5090253;28;20032;-80
2022/12/08 02:49:31;;;;;;;12.10;7.15;;;;;;;;;;5059082;28;20123;-79
2022/12/08 02:52:12;;;;;;;13.77;7.45;;;;;;;;;;5090096;28;20503;-79
2022/12/08 02:54:46;;;;;;;13.73;7.50;;;;;;;;;;5090060;28;20016;-78
2022/12/08 02:57:14;;;;;;;12.30;6.88;;;;;;;;;;5071701;28;20073;-79
2022/12/08 02:59:55;;;;;;;12.00;6.70;;;;;;;;;;5090049;28;20061;-77
2022/12/08 03:02:37;;;;;;;14.30;6.70;;;;;;;;;;5089698;28;20107;-77
2022/12/08 03:05:13;;;;;;;12.18;6.47;;;;;;;;;;5071805;28;20455;-77
2022/12/08 03:08:06;;;;;;;11.23;6.50;;;;;;;;;;5089878;28;20039;-78
2022/12/08 03:10:36;;;;;;;10.88;6.40;;;;;;;;;;5090089;28;20114;-77
2022/12/08 03:13:08;;;;;;;14.15;7.35;;;;;;;;;;5089558;28;20024;-78
2022/12/08 03:15:36;;;;;;;10.73;6.28;;;;;;;;;;5071430;28;20135;-78
2022/12/08 03:18:04;;;;;;;10.93;6.15;;;;;;;;;;5089575;28;20403;-77
2022/12/08 03:20:32;;;;;;;11.40;6.32;;;;;;;;;;5089977;28;20028;-78
2022/12/08 03:23:00;;;;;;;11.00;5.78;;;;;;;;;;5089583;28;20518;-77
2022/12/08 03:25:30;;;;;;;11.10;6.32;;;;;;;;;;5089789;28;20027;-77
2022/12/08 03:27:57;;;;;;;10.93;6.18;;;;;;;;;;5089457;28;20028;-80
2022/12/08 03:30:23;;;;;;;12.55;6.60;;;;;;;;;;5089643;28;20035;-77
2022/12/08 03:32:59;;;;;;;11.13;6.20;;;;;;;;;;5089483;28;20032;-77
2022/12/08 03:35:32;;;;;;;9.68;5.68;;;;;;;;;;5083567;22;20186;-74
2022/12/08 03:38:09;;;;;;;10.35;5.95;;;;;;;;;;5069362;28;20504;-74
2022/12/08 03:40:35;;;;;;;12.88;6.00;;;;;;;;;;5069796;28;20048;-74
2022/12/08 03:43:01;;;;;;;11.60;6.00;;;;;;;;;;5069275;28;20698;-73
2022/12/08 03:45:27;;;;;;;13.02;6.18;;;;;;;;;;5069632;28;20112;-74
2022/12/08 03:47:52;;;;;;;12.15;6.13;;;;;;;;;;5069277;28;20485;-74
2022/12/08 03:50:18;;;;;;;10.27;6.65;;;;;;;;;;5069539;28;20016;-74
2022/12/08 03:52:43;;;;;;;10.35;5.75;;;;;;;;;;5069491;28;20025;-74
2022/12/08 03:55:09;;;;;;;9.90;6.25;;;;;;;;;;5069495;28;20430;-74
2022/12/08 03:57:34;;;;;;;10.77;6.13;;;;;;;;;;5069054;28;20041;-74
2022/12/08 04:00:00;;;;;;;10.18;5.97;;;;;;;;;;5068093;28;20493;-73
2022/12/08 04:02:25;;;;;;;10.05;6.43;;;;;;;;;;5069580;28;20629;-75
2022/12/08 04:04:51;;;;;;;9.73;6.07;;;;;;;;;;5069177;28;20078;-74
2022/12/08 04:07:19;;;;;;;9.93;5.93;;;;;;;;;;5069300;28;20029;-74
2022/12/08 04:09:44;;;;;;;11.10;6.05;;;;;;;;;;5069196;28;20060;-74
2022/12/08 04:12:10;;;;;;;10.38;6.25;;;;;;;;;;5069400;28;20056;-74
2022/12/08 04:14:35;;;;;;;12.13;6.13;;;;;;;;;;5070499;28;20024;-74
2022/12/08 04:17:01;;;;;;;10.75;6.07;;;;;;;;;;5072797;28;20028;-74
2022/12/08 04:19:26;;;;;;;11.25;6.30;;;;;;;;;;5072537;28;20035;-74
2022/12/08 04:21:51;;;;;;;10.40;6.03;;;;;;;;;;5072643;28;20581;-74
2022/12/08 04:24:17;;;;;;;12.73;6.65;;;;;;;;;;5072398;28;20037;-74
2022/12/08 04:26:42;;;;;;;9.43;5.82;;;;;;;;;;5072387;28;20021;-74
2022/12/08 04:29:08;;;;;;;11.82;6.15;;;;;;;;;;5072295;28;20028;-73
2022/12/08 04:31:33;;;;;;;10.85;6.28;;;;;;;;;;5072723;28;20502;-74
2022/12/08 04:33:58;;;;;;;11.05;6.30;;;;;;;;;;5072141;28;20033;-74
2022/12/08 04:36:24;;;;;;;9.93;6.50;;;;;;;;;;5072280;28;20025;-74
2022/12/08 04:38:49;;;;;;;12.35;6.93;;;;;;;;;;5072107;28;20060;-74
2022/12/08 04:41:15;;;;;;;12.00;6.47;;;;;;;;;;5072246;28;20036;-74
2022/12/08 04:43:43;;;;;;;9.60;6.25;;;;;;;;;;5071902;28;20093;-75
2022/12/08 04:46:08;;;;;;;12.02;6.05;;;;;;;;;;5072071;28;20512;-75
2022/12/08 04:48:36;;;;;;;11.98;6.40;;;;;;;;;;5071880;28;20035;-75
2022/12/08 04:51:01;;;;;;;9.98;6.05;;;;;;;;;;5072263;28;20048;-74
2022/12/08 04:53:27;;;;;;;11.50;6.18;;;;;;;;;;5072163;28;20024;-75
2022/12/08 04:55:52;;;;;;;11.73;6.30;;;;;;;;;;5071833;28;20052;-75
2022/12/08 04:58:18;;;;;;;11.75;5.85;;;;;;;;;;5071853;28;20021;-74
2022/12/08 05:00:45;;;;;;;9.70;5.85;;;;;;;;;;5071765;28;20365;-74
2022/12/08 05:03:11;;;;;;;10.35;6.45;;;;;;;;;;5072086;28;20029;-74
2022/12/08 05:05:36;;;;;;;10.48;6.45;;;;;;;;;;5071748;28;20103;-74
2022/12/08 05:08:01;;;;;;;11.40;6.43;;;;;;;;;;5071769;28;20076;-73
2022/12/08 05:10:27;;;;;;;11.93;6.60;;;;;;;;;;5071644;28;20031;-74
2022/12/08 05:12:53;;;;;;;11.68;6.68;;;;;;;;;;5071826;28;20103;-75
2022/12/08 05:15:18;;;;;;;10.95;6.82;;;;;;;;;;5071290;28;20028;-75
2022/12/08 05:17:44;;;;;;;10.93;6.38;;;;;;;;;;5071390;28;20020;-74
2022/12/08 05:20:10;;;;;;;11.82;6.53;;;;;;;;;;5071548;28;20017;-74
2022/12/08 05:22:35;;;;;;;9.90;6.03;;;;;;;;;;5071697;28;20025;-74
2022/12/08 05:25:03;;;;;;;10.80;6.00;;;;;;;;;;5070995;28;20029;-74
2022/12/08 05:27:29;;;;;;;10.60;6.10;;;;;;;;;;5071366;28;20028;-74
2022/12/08 05:29:54;;;;;;;11.90;6.30;;;;;;;;;;5071330;28;20025;-74
2022/12/08 05:32:19;;;;;;;9.65;5.78;;;;;;;;;;5071256;28;20024;-74
2022/12/08 05:34:45;;;;;;;8.93;5.57;;;;;;;;;;5070746;28;20036;-75
2022/12/08 05:37:10;;;;;;;10.85;5.85;;;;;;;;;;5071018;28;20361;-74
2022/12/08 05:39:36;;;;;;;13.10;6.10;;;;;;;;;;5070813;28;20043;-74
2022/12/08 05:42:01;;;;;;;9.75;5.82;;;;;;;;;;5071149;28;20036;-74
2022/12/08 05:44:27;;;;;;;11.25;6.18;;;;;;;;;;5070749;28;20065;-74
2022/12/08 05:46:52;;;;;;;12.80;7.20;;;;;;;;;;5070782;28;20021;-74
2022/12/08 05:49:17;;;;;;;11.52;5.65;;;;;;;;;;5070847;28;20054;-75
2022/12/08 05:51:43;;;;;;;10.75;5.85;;;;;;;;;;5070840;28;20035;-74
2022/12/08 05:54:09;;;;;;;10.75;6.18;;;;;;;;;;5070723;28;20108;-75
2022/12/08 05:56:34;;;;;;;9.30;5.90;;;;;;;;;;5070680;28;20050;-73
2022/12/08 05:59:00;;;;;;;10.90;5.75;;;;;;;;;;5070639;28;20032;-73
2022/12/08 06:01:30;;;;;;;10.23;6.00;;;;;;;;;;5070975;28;20480;-73
2022/12/08 06:03:58;;;;;;;10.23;6.00;;;;;;;;;;5070888;28;20025;-75
2022/12/08 06:06:24;;;;;;;10.05;6.22;;;;;;;;;;5070357;28;20032;-75
2022/12/08 06:08:49;;;;;;;11.60;5.70;;;;;;;;;;5070518;28;20151;-75
2022/12/08 06:11:24;;;;;;;10.93;5.70;;;;;;;;;;5070321;28;20119;-74
2022/12/08 06:13:50;;;;;;;11.05;5.80;;;;;;;;;;5070486;28;20024;-74
2022/12/08 06:16:16;;;;;;;10.73;6.05;;;;;;;;;;5070159;28;20601;-74
2022/12/08 06:18:41;;;;;;;10.63;5.90;;;;;;;;;;5070584;28;20449;-73
2022/12/08 06:21:09;;;;;;;11.50;6.28;;;;;;;;;;5070155;28;20033;-72
2022/12/08 06:23:35;;;;;;;13.88;6.13;;;;;;;;;;5070375;28;20048;-75
2022/12/08 06:26:05;;;;;;;10.35;6.18;;;;;;;;;;5070011;28;20077;-75
2022/12/08 06:28:31;;;;;;;12.27;6.78;;;;;;;;;;5069929;28;20031;-74
2022/12/08 06:30:58;;;;;;;10.45;6.50;;;;;;;;;;5070125;28;20495;-74
2022/12/08 06:33:24;;;;;;;11.32;6.18;;;;;;;;;;5070404;28;20033;-74
2022/12/08 06:35:50;;;;;;;13.07;6.53;;;;;;;;;;5069547;28;20044;-74
2022/12/08 06:38:15;;;;;;;11.38;6.13;;;;;;;;;;5069432;28;20032;-74
2022/12/08 06:40:40;;;;;;;10.48;6.40;;;;;;;;;;5070024;28;20181;-73
2022/12/08 06:43:06;;;;;;;11.05;6.63;;;;;;;;;;5069874;28;20025;-74
2022/12/08 06:45:31;;;;;;;12.02;6.75;;;;;;;;;;5069848;28;20034;-74
2022/12/08 06:47:56;;;;;;;12.00;6.65;;;;;;;;;;5069813;28;20074;-75
2022/12/08 06:50:22;;;;;;;10.23;6.15;;;;;;;;;;5069837;28;20028;-72
2022/12/08 06:52:47;;;;;;;13.32;6.57;;;;;;;;;;5070178;28;20032;-75
2022/12/08 06:55:13;;;;;;;11.90;6.30;;;;;;;;;;5069869;28;20475;-74
2022/12/08 06:57:38;;;;;;;11.20;6.60;;;;;;;;;;5069797;28;20111;-74
2022/12/08 07:00:04;;;;;;;12.75;6.75;;;;;;;;;;5069562;28;20529;-74
2022/12/08 07:02:30;;;;;;;13.05;6.43;;;;;;;;;;5069882;28;20128;-73
2022/12/08 07:04:55;;;;;;;11.75;6.85;;;;;;;;;;5069729;28;20108;-74
2022/12/08 07:07:21;;;;;;;12.43;6.50;;;;;;;;;;5069540;28;20029;-74
2022/12/08 07:09:46;;;;;;;13.57;6.72;;;;;;;;;;5069967;28;20094;-74
2022/12/08 07:12:11;;;;;;;13.02;6.82;;;;;;;;;;5069614;28;20025;-73
2022/12/08 07:14:37;;;;;;;10.68;6.40;;;;;;;;;;5069871;28;20056;-74
2022/12/08 07:17:02;;;;;;;14.07;7.57;;;;;;;;;;5069328;28;20025;-74
2022/12/08 07:19:28;;;;;;;15.40;7.80;;;;;;;;;;5069660;28;20040;-75
2022/12/08 07:21:53;;;;;;;17.25;8.50;;;;;;;;;;5069339;28;20051;-74
2022/12/08 07:24:18;;;;;;;19.40;8.82;;;;;;;;;;5069892;28;20511;-75
2022/12/08 07:26:44;;;;;;;22.17;8.85;;;;;;;;;;5069522;28;20025;-75
2022/12/08 07:29:09;;;;;;;20.15;9.13;;;;;;;;;;5069674;28;20054;-74
2022/12/08 07:31:35;;;;;;;18.42;9.45;;;;;;;;;;5069447;28;20033;-75
2022/12/08 07:34:01;;;;;;;19.33;9.68;;;;;;;;;;5069307;28;20038;-77
2022/12/08 07:36:26;;;;;;;20.67;9.10;;;;;;;;;;5069184;28;20025;-75
2022/12/08 07:38:52;;;;;;;20.88;9.13;;;;;;;;;;5069212;28;20033;-76
2022/12/08 07:41:20;;;;;;;20.88;9.57;;;;;;;;;;5069391;28;20032;-75
2022/12/08 07:43:45;;;;;;;18.08;9.63;;;;;;;;;;5069536;28;20021;-76
2022/12/08 07:46:12;;;;;;;19.50;9.23;;;;;;;;;;5069181;28;20055;-75
2022/12/08 07:48:38;;;;;;;23.30;10.10;;;;;;;;;;5070813;28;20025;-76
2022/12/08 07:51:04;;;;;;;21.17;10.02;;;;;;;;;;5072961;28;20550;-76
2022/12/08 07:53:30;;;;;;;28.88;10.40;;;;;;;;;;5073049;28;20020;-76
2022/12/08 07:55:56;;;;;;;25.33;10.48;;;;;;;;;;5072763;28;20480;-75
2022/12/08 07:58:21;;;;;;;24.52;11.00;;;;;;;;;;5072821;28;20040;-75
2022/12/08 08:00:46;;;;;;;24.00;10.57;;;;;;;;;;5072961;28;20032;-76
2022/12/08 08:03:12;;;;;;;21.85;10.02;;;;;;;;;;5073172;28;20028;-75
2022/12/08 08:05:37;;;;;;;26.50;10.43;;;;;;;;;;5072919;28;20441;-73
2022/12/08 08:08:03;;;;;;;20.33;9.75;;;;;;;;;;5072766;28;20082;-74
2022/12/08 08:10:29;;;;;;;25.52;10.10;;;;;;;;;;5072995;28;20017;-74
2022/12/08 08:12:57;;;;;;;21.25;9.93;;;;;;;;;;5072471;28;20082;-77
2022/12/08 08:15:23;;;;;;;20.48;9.75;;;;;;;;;;5072878;28;20036;-78
2022/12/08 08:17:52;;;;;;;20.75;9.68;;;;;;;;;;5072349;28;20032;-76
2022/12/08 08:20:18;;;;;;;22.40;10.10;;;;;;;;;;5072984;28;20036;-76
2022/12/08 08:22:46;;;;;;;20.00;9.90;;;;;;;;;;5072518;28;20551;-76
2022/12/08 08:25:11;;;;;;;22.77;10.45;;;;;;;;;;5072429;28;20036;-74
2022/12/08 08:27:36;;;;;;;20.50;10.32;;;;;;;;;;5072074;28;20028;-74
2022/12/08 08:30:02;;;;;;;22.58;10.18;;;;;;;;;;5072342;28;20036;-76
2022/12/08 08:32:32;;;;;;;20.52;9.65;;;;;;;;;;5072263;28;20085;-76
2022/12/08 08:34:58;;;;;;;24.65;9.68;;;;;;;;;;5072404;28;20579;-77
2022/12/08 08:37:23;;;;;;;24.80;10.07;;;;;;;;;;5071972;28;20111;-76
2022/12/08 08:39:49;;;;;;;20.35;10.20;;;;;;;;;;5072380;28;20025;-74
2022/12/08 08:42:14;;;;;;;19.92;9.98;;;;;;;;;;5071947;28;20077;-76
2022/12/08 08:44:39;;;;;;;24.05;10.10;;;;;;;;;;5072414;28;20028;-76
2022/12/08 08:47:05;;;;;;;18.83;9.45;;;;;;;;;;5071824;28;20111;-75
2022/12/08 08:49:30;;;;;;;19.70;8.82;;;;;;;;;;5070613;28;20036;-76
2022/12/08 08:51:56;;;;;;;16.92;8.93;;;;;;;;;;5072029;28;20059;-76
2022/12/08 08:54:21;;;;;;;19.27;8.68;;;;;;;;;;5072298;28;20366;-77
2022/12/08 08:56:47;;;;;;;18.10;8.50;;;;;;;;;;5071823;28;20028;-74
2022/12/08 08:59:13;;;;;;;15.85;8.15;;;;;;;;;;5071714;28;20037;-75
2022/12/08 09:01:38;;;;;;;17.25;8.45;;;;;;;;;;5071037;28;20098;-74
2022/12/08 09:04:03;;;;;;;15.30;7.95;;;;;;;;;;5071747;28;20021;-75
2022/12/08 09:06:29;;;;;;;14.38;7.85;;;;;;;;;;5071745;28;20024;-76
2022/12/08 09:08:54;;;;;;;18.27;7.93;;;;;;;;;;5071728;28;20038;-76
2022/12/08 09:11:22;;;;;;;16.85;8.07;;;;;;;;;;5070432;28;20033;-76
2022/12/08 09:13:48;;;;;;;17.10;8.48;;;;;;;;;;5071645;28;20058;-77
2022/12/08 09:16:14;;;;;;;15.25;7.75;;;;;;;;;;5071689;28;20106;-76
2022/12/08 09:18:39;;;;;;;14.88;8.57;;;;;;;;;;5071407;28;20465;-75
2022/12/08 09:21:15;;;;;;;18.35;8.40;;;;;;;;;;5071675;28;20483;-76
2022/12/08 09:23:41;;;;;;;14.88;8.07;;;;;;;;;;5071459;28;20063;-76
2022/12/08 09:26:07;;;;;;;17.25;8.25;;;;;;;;;;5071539;28;20400;-74
2022/12/08 09:28:32;;;;;;;15.57;7.28;;;;;;;;;;5071072;28;20036;-76
2022/12/08 09:30:58;;;;;;;14.27;7.53;;;;;;;;;;5071449;28;20021;-74
2022/12/08 09:33:23;;;;;;;17.13;7.55;;;;;;;;;;5071206;28;20027;-76
2022/12/08 09:35:49;;;;;;;14.70;6.38;;;;;;;;;;5071205;28;20040;-77
2022/12/08 09:38:14;;;;;;;13.18;6.43;;;;;;;;;;5070605;28;20024;-76
2022/12/08 09:40:51;;;;;;;15.00;6.68;;;;;;;;;;5071064;28;20032;-76
2022/12/08 09:43:35;;;;;;;13.13;7.22;;;;;;;;;;5069413;28;20025;-76
2022/12/08 09:46:04;;;;;;;12.40;7.25;;;;;;;;;;5071216;28;20034;-76
2022/12/08 09:48:35;;;;;;;13.88;6.90;;;;;;;;;;5070773;28;20039;-77
2022/12/08 09:51:02;;;;;;;13.43;6.85;;;;;;;;;;5071131;28;20059;-75
2022/12/08 09:53:38;;;;;;;11.52;6.28;;;;;;;;;;5070793;28;20033;-74
2022/12/08 09:56:21;;;;;;;13.43;5.90;;;;;;;;;;5070754;28;20027;-75
2022/12/08 09:58:51;;;;;;;9.10;5.60;;;;;;;;;;5070140;28;20028;-73
2022/12/08 10:01:18;;;;;;;9.25;5.30;;;;;;;;;;5070956;28;20028;-74
2022/12/08 10:03:45;;;;;;;9.55;5.20;;;;;;;;;;5070595;28;20035;-75
2022/12/08 10:06:23;;;;;;;8.13;4.72;;;;;;;;;;5070830;28;20028;-76
2022/12/08 10:09:10;;;;;;;10.23;4.93;;;;;;;;;;5070564;28;20084;-75
2022/12/08 10:11:50;;;;;;;10.65;4.70;;;;;;;;;;5069726;28;20035;-73
2022/12/08 10:14:30;;;;;;;7.82;4.72;;;;;;;;;;5070132;28;20074;-73
2022/12/08 10:17:04;;;;;;;8.48;4.40;;;;;;;;;;5070401;28;20020;-73
2022/12/08 10:19:31;;;;;;;9.88;4.15;;;;;;;;;;5070266;28;20024;-74
2022/12/08 10:22:01;;;;;;;6.97;3.70;;;;;;;;;;5070485;28;20411;-74
2022/12/08 10:24:39;;;;;;;10.80;4.55;;;;;;;;;;5070382;28;20498;-74
2022/12/08 10:27:10;;;;;;;7.75;3.60;;;;;;;;;;5068961;28;20048;-73
2022/12/08 10:29:36;;;;;;;5.88;3.35;;;;;;;;;;5070296;28;20105;-74
2022/12/08 10:32:13;;;;;;;6.22;3.63;;;;;;;;;;5070032;28;20544;-75
2022/12/08 10:35:08;;;;;;;5.47;3.50;;;;;;;;;;5069732;28;20032;-76
2022/12/08 10:37:34;;;;;;;9.35;4.10;;;;;;;;;;5069865;28;20032;-73
2022/12/08 10:40:16;;;;;;;8.88;3.50;;;;;;;;;;5070007;28;20074;-73
2022/12/08 10:42:46;;;;;;;8.02;3.50;;;;;;;;;;5069800;28;20078;-75
2022/12/08 10:45:41;;;;;;;6.63;3.60;;;;;;;;;;5070039;28;20032;-74
2022/12/08 10:48:31;;;;;;;8.77;3.75;;;;;;;;;;5063842;28;20552;-74
2022/12/08 10:50:58;;;;;;;6.97;4.00;;;;;;;;;;5070001;28;20043;-75
2022/12/08 10:53:32;;;;;;;6.25;3.42;;;;;;;;;;5069707;28;20031;-73
2022/12/08 10:56:00;;;;;;;6.95;3.70;;;;;;;;;;5069946;28;20028;-73
2022/12/08 10:58:40;;;;;;;5.85;3.22;;;;;;;;;;5069304;28;20032;-74
2022/12/08 11:01:17;;;;;;;6.47;3.22;;;;;;;;;;5069989;28;20054;-74
2022/12/08 11:03:47;;;;;;;8.27;3.78;;;;;;;;;;5069751;28;20035;-74
2022/12/08 11:06:24;;;;;;;7.10;3.55;;;;;;;;;;5069782;28;20060;-73
2022/12/08 11:08:52;;;;;;;8.05;3.28;;;;;;;;;;5069305;28;20069;-74
2022/12/08 11:11:19;;;;;;;5.82;3.08;;;;;;;;;;5069860;28;20029;-73
2022/12/08 11:13:47;;;;;;;6.40;3.25;;;;;;;;;;5069524;28;20473;-75
2022/12/08 11:16:15;;;;;;;6.07;3.42;;;;;;;;;;5069849;28;20547;-73
2022/12/08 11:18:46;;;;;;;6.18;3.10;;;;;;;;;;5069325;28;20473;-74
2022/12/08 11:21:17;;;;;;;4.85;2.80;;;;;;;;;;5069740;28;20082;-74
2022/12/08 11:23:48;;;;;;;8.23;3.47;;;;;;;;;;5071121;28;20065;-73
2022/12/08 11:26:29;;;;;;;6.78;3.60;;;;;;;;;;5073547;28;20060;-73
2022/12/08 11:28:55;;;;;;;4.95;2.67;;;;;;;;;;5073195;28;20025;-75
2022/12/08 11:31:31;;;;;;;6.05;2.90;;;;;;;;;;5073923;28;20040;-73
2022/12/08 11:33:56;;;;;;;5.10;2.90;;;;;;;;;;5073533;28;20058;-74
2022/12/08 11:36:25;;;;;;;6.00;3.00;;;;;;;;;;5073492;28;20044;-73
2022/12/08 11:38:55;;;;;;;6.03;3.38;;;;;;;;;;5072994;28;20400;-74
2022/12/08 11:41:25;;;;;;;5.18;2.70;;;;;;;;;;5073425;28;20039;-73
2022/12/08 11:44:09;;;;;;;4.88;2.92;;;;;;;;;;5072958;28;20029;-73
2022/12/08 11:46:52;;;;;;;4.47;2.70;;;;;;;;;;5073549;28;20029;-74
2022/12/08 11:49:18;;;;;;;5.35;3.00;;;;;;;;;;5073053;28;20043;-73
2022/12/08 11:52:10;;;;;;;5.07;2.80;;;;;;;;;;5072044;28;20066;-73
2022/12/08 11:54:44;;;;;;;5.93;2.72;;;;;;;;;;5072993;28;20488;-74
2022/12/08 11:57:15;;;;;;;6.50;3.00;;;;;;;;;;5072950;28;20109;-73
2022/12/08 11:59:48;;;;;;;5.65;3.08;;;;;;;;;;5072701;28;20070;-73
2022/12/08 12:02:17;;;;;;;7.57;3.20;;;;;;;;;;5073044;28;20109;-73
2022/12/08 12:04:49;;;;;;;9.88;3.47;;;;;;;;;;5072910;28;20032;-74
2022/12/08 12:07:51;;;;;;;8.65;3.38;;;;;;;;;;5073236;28;20028;-74
2022/12/08 12:10:34;;;;;;;5.03;2.88;;;;;;;;;;5072625;28;20021;-74
2022/12/08 12:13:21;;;;;;;6.78;3.08;;;;;;;;;;5072697;28;20036;-74
2022/12/08 12:16:08;;;;;;;6.35;3.60;;;;;;;;;;5072685;28;20029;-73
2022/12/08 12:18:37;;;;;;;5.97;3.10;;;;;;;;;;5072463;28;20052;-73
2022/12/08 12:21:09;;;;;;;5.20;3.10;;;;;;;;;;5072534;28;20112;-76
2022/12/08 12:23:40;;;;;;;5.25;3.40;;;;;;;;;;5072371;28;20024;-74
2022/12/08 12:26:08;;;;;;;7.55;3.60;;;;;;;;;;5072848;28;20020;-74
2022/12/08 12:28:43;;;;;;;5.35;3.20;;;;;;;;;;5072502;28;20508;-74
2022/12/08 12:31:16;;;;;;;5.00;2.78;;;;;;;;;;5072504;28;20021;-73
2022/12/08 12:33:45;;;;;;;5.65;2.97;;;;;;;;;;5072303;28;20016;-73
2022/12/08 12:36:12;;;;;;;5.45;3.17;;;;;;;;;;5071028;28;20047;-74
2022/12/08 12:39:06;;;;;;;6.85;3.30;;;;;;;;;;5072213;28;20024;-74
2022/12/08 12:41:57;;;;;;;7.35;3.35;;;;;;;;;;5072457;28;20033;-75
2022/12/08 12:44:44;;;;;;;5.72;3.15;;;;;;;;;;5071566;28;20048;-75
2022/12/08 12:47:12;;;;;;;5.80;3.28;;;;;;;;;;5071950;28;20036;-75
2022/12/08 12:49:37;;;;;;;6.00;3.30;;;;;;;;;;5072001;28;20036;-75
2022/12/08 12:52:24;;;;;;;6.63;3.13;;;;;;;;;;5072047;28;20035;-74
2022/12/08 12:54:49;;;;;;;5.20;3.08;;;;;;;;;;5071320;28;20040;-76
2022/12/08 12:57:17;;;;;;;7.10;3.38;;;;;;;;;;5072136;28;20043;-75
2022/12/08 12:59:52;;;;;;;5.65;3.22;;;;;;;;;;5071747;28;20024;-74
2022/12/08 13:02:20;;;;;;;6.57;3.50;;;;;;;;;;5072175;28;20107;-73
2022/12/08 13:05:12;;;;;;;9.95;3.70;;;;;;;;;;5070267;28;20020;-73
2022/12/08 13:07:56;;;;;;;5.80;3.33;;;;;;;;;;5055421;28;20116;-75
2022/12/08 13:10:30;;;;;;;6.47;3.20;;;;;;;;;;5070060;28;20032;-73
2022/12/08 13:13:15;;;;;;;7.93;3.42;;;;;;;;;;5071660;28;20021;-74
2022/12/08 13:15:49;;;;;;;8.82;3.38;;;;;;;;;;5071617;28;20103;-76
2022/12/08 13:18:25;;;;;;;7.53;3.80;;;;;;;;;;5071777;28;20032;-74
2022/12/08 13:21:04;;;;;;;8.35;3.63;;;;;;;;;;5071190;28;20613;-74
2022/12/08 13:23:36;;;;;;;5.45;3.42;;;;;;;;;;5070230;28;20089;-73
2022/12/08 13:26:09;;;;;;;5.32;3.40;;;;;;;;;;5071166;28;20081;-74
2022/12/08 13:28:57;;;;;;;8.15;3.45;;;;;;;;;;5071352;28;20024;-74
2022/12/08 13:31:36;;;;;;;5.82;3.40;;;;;;;;;;5071055;28;20679;-74
2022/12/08 13:34:35;;;;;;;11.77;3.50;;;;;;;;;;5071361;28;20024;-75
2022/12/08 13:37:09;;;;;;;6.47;3.60;;;;;;;;;;5071356;28;20060;-74
2022/12/08 13:40:22;;;;;;;6.45;3.40;;;;;;;;;;5070973;28;20074;-73
2022/12/08 13:43:04;;;;;;;6.78;3.50;;;;;;;;;;5028380;28;20409;-74
2022/12/08 13:45:33;;;;;;;5.78;3.20;;;;;;;;;;5028207;28;20036;-75
2022/12/08 13:48:20;;;;;;;6.45;3.30;;;;;;;;;;5053874;28;20033;-74
2022/12/08 13:50:52;;;;;;;6.45;3.55;;;;;;;;;;5070601;28;20017;-73
2022/12/08 13:53:39;;;;;;;7.78;3.45;;;;;;;;;;5071228;28;20095;-73
2022/12/08 13:56:06;;;;;;;6.18;3.47;;;;;;;;;;5070751;28;20384;-74
2022/12/08 13:58:35;;;;;;;5.00;3.17;;;;;;;;;;5070844;28;20089;-73
2022/12/08 14:01:06;;;;;;;6.07;3.30;;;;;;;;;;5070582;28;20103;-73
2022/12/08 14:03:57;;;;;;;5.80;3.42;;;;;;;;;;5070708;28;20051;-75
2022/12/08 14:06:34;;;;;;;7.35;3.78;;;;;;;;;;5070618;28;20624;-74
2022/12/08 14:09:01;;;;;;;6.50;3.53;;;;;;;;;;5070776;28;20032;-73
2022/12/08 14:11:39;;;;;;;7.65;3.42;;;;;;;;;;5070448;28;20082;-74
2022/12/08 14:14:06;;;;;;;7.20;3.70;;;;;;;;;;5070564;28;20032;-73
2022/12/08 14:16:37;;;;;;;8.20;3.30;;;;;;;;;;5070405;28;20426;-73
2022/12/08 14:19:20;;;;;;;5.93;3.40;;;;;;;;;;5070362;28;20388;-73
2022/12/08 14:21:52;;;;;;;9.65;3.55;;;;;;;;;;5070071;28;20025;-73
2022/12/08 14:24:17;;;;;;;6.38;3.50;;;;;;;;;;5070378;28;20365;-73
2022/12/08 14:26:45;;;;;;;7.43;3.80;;;;;;;;;;5070179;28;20043;-73
2022/12/08 14:29:21;;;;;;;6.40;3.67;;;;;;;;;;5070351;28;20024;-76
2022/12/08 14:31:46;;;;;;;5.97;3.70;;;;;;;;;;5070060;28;20381;-75
2022/12/08 14:34:12;;;;;;;7.85;3.67;;;;;;;;;;5070153;28;20012;-74
2022/12/08 14:36:37;;;;;;;8.05;3.63;;;;;;;;;;5069917;28;20044;-75
2022/12/08 14:39:03;;;;;;;8.18;3.80;;;;;;;;;;5069962;28;20029;-73
2022/12/08 14:41:31;;;;;;;7.35;3.97;;;;;;;;;;5069865;28;20667;-73
2022/12/08 14:43:59;;;;;;;8.80;3.58;;;;;;;;;;5068729;28;20072;-74
2022/12/08 14:46:26;;;;;;;7.00;3.58;;;;;;;;;;5070182;28;20088;-74
2022/12/08 14:48:53;;;;;;;10.05;3.50;;;;;;;;;;5070083;28;20064;-74
2022/12/08 14:51:19;;;;;;;6.78;3.85;;;;;;;;;;5069798;28;20481;-74
2022/12/08 14:53:46;;;;;;;5.32;3.17;;;;;;;;;;5069769;28;20031;-74
2022/12/08 14:56:18;;;;;;;7.18;3.75;;;;;;;;;;5069900;28;20419;-74